Estación Meteorológica Peña el Pijo (Robertgarden) [ 06/14/24 09:26:41 CEST ]

Fecha Hora Presion(HPa) Temp (°C) Humedad % Rocio (°C) Viento ( m/s) Direccion Lluvia 1Hora(mm) Lluvia 24H(mm) LLuvia Total(mm)
2015-Dec-09 01:01:14 1023.600 3.2 81 0.3         658.37
2015-Dec-09 02:05:21 1023.100 2.4 82 -0.4         658.37
2015-Dec-09 03:01:16 1023.200 2.2 83 -0.4         658.37
2015-Dec-09 04:01:14 1023.400 1.9 84 -0.6         658.37
2015-Dec-09 05:01:13 1023.300 1.8 84 -0.7         658.37
2015-Dec-09 06:01:14 1023.100 1.4 85 -0.9         658.37
2015-Dec-09 07:01:13 1023.500 0.8 86 -1.3         658.37
2015-Dec-09 08:01:16 1023.800 0.9 86 -1.2         658.37
2015-Dec-09 09:01:14 1024.200 1.3 87 -0.7         658.37
2015-Dec-09 10:01:17 1024.600 6.9 87 4.9         658.37
2015-Dec-09 11:01:17 1024.500 11.9 74 7.4         658.37
2015-Dec-09 12:01:13 1024.400 14.0 58 5.9         658.37
2015-Dec-09 13:01:16 1023.800 14.6 57 6.2         658.37
2015-Dec-09 14:01:12 1023.200 14.9 54 5.7         658.37
2015-Dec-09 15:01:15 1022.900 13.9 59 6.0         658.37
2015-Dec-09 16:01:16 1022.900 12.4 65 6.0         658.37
2015-Dec-09 17:01:15 1023.200 11.1 69 5.7         658.37
2015-Dec-09 18:01:14 1023.300 10.3 70 5.1         658.37
2015-Dec-09 19:01:18 1023.200 9.9 72 5.1         658.37
2015-Dec-09 20:01:17 1023.200 9.8 74 5.4         658.37
2015-Dec-09 21:01:12 1023.400 9.6 76 5.5         658.37
2015-Dec-09 22:01:17 1023.400 9.4 78 5.7         658.37
2015-Dec-09 23:01:19 1023.200 9.2 81 6.1         658.37

Temperatura Máxima:14°    Temperatura Mínima:
Presión Máxima:1024.600 Hpa    Presión Mínima:1022.900 Hpa


Volver